Time;durP1;ratioP1;P1;durP2;ratioP2;P2;SDS_P1;SDS_P2;PMS_P1;PMS_P2;Temp;Humidity;BMP_temperature;BMP_pressure;BME280_temperature;BME280_humidity;BME280_pressure;Samples;Min_cycle;Max_cycle;Signal;HPM_P1;HPM_P2
2022/04/18 00:02:12;;;;;;;0.80;0.80;;;-0.20;99.90;;;;;;4957107;28;20215;-87
2022/04/18 00:04:38;;;;;;;0.60;0.60;;;-0.20;99.90;;;;;;4956812;28;20346;-87
2022/04/18 00:07:04;;;;;;;0.70;0.70;;;-0.30;99.90;;;;;;4956794;28;20200;-87
2022/04/18 00:09:33;;;;;;;0.80;0.80;;;-0.30;99.90;;;;;;4956543;28;20200;-85
2022/04/18 00:12:00;;;;;;;0.80;0.80;;;-0.40;99.90;;;;;;4972883;28;20627;-85
2022/04/18 00:14:25;;;;;;;0.60;0.60;;;-0.40;99.90;;;;;;4956326;28;20235;-85
2022/04/18 00:16:51;;;;;;;0.95;0.95;;;-0.40;99.90;;;;;;4956882;28;20613;-84
2022/04/18 00:19:17;;;;;;;0.75;0.75;;;-0.40;99.90;;;;;;4956701;28;20204;-84
2022/04/18 00:21:43;;;;;;;0.63;0.63;;;-0.40;99.90;;;;;;4956473;28;20200;-84
2022/04/18 00:24:10;;;;;;;1.33;1.13;;;-0.40;99.90;;;;;;4968311;28;20246;-86
2022/04/18 00:26:39;;;;;;;0.70;0.70;;;-0.40;99.90;;;;;;4991548;28;20195;-85
2022/04/18 00:29:06;;;;;;;0.63;0.63;;;-0.40;99.90;;;;;;4975602;28;20683;-84
2022/04/18 00:31:32;;;;;;;0.70;0.70;;;-0.50;99.90;;;;;;4975501;28;20541;-85
2022/04/18 00:33:57;;;;;;;0.75;0.75;;;-0.50;99.90;;;;;;4976044;28;20210;-85
2022/04/18 00:36:23;;;;;;;0.90;0.90;;;-0.60;99.90;;;;;;4975548;28;20203;-84
2022/04/18 00:38:49;;;;;;;0.93;0.93;;;-0.60;99.90;;;;;;4976760;28;20215;-84
2022/04/18 00:41:15;;;;;;;0.80;0.80;;;-0.60;99.90;;;;;;4955516;28;20215;-85
2022/04/18 00:43:45;;;;;;;0.70;0.70;;;-0.60;99.90;;;;;;4972481;28;20226;-85
2022/04/18 00:46:12;;;;;;;1.25;1.15;;;-0.70;99.90;;;;;;4972537;28;20273;-85
2022/04/18 00:48:38;;;;;;;0.80;0.80;;;-0.70;99.90;;;;;;4972411;28;20267;-85
2022/04/18 00:51:05;;;;;;;0.70;0.70;;;-0.70;99.90;;;;;;4972551;28;20196;-85
2022/04/18 00:53:32;;;;;;;0.80;0.80;;;-0.80;99.90;;;;;;4956335;28;20219;-85
2022/04/18 00:55:58;;;;;;;0.60;0.60;;;-0.80;99.90;;;;;;4973840;28;20247;-85
2022/04/18 00:58:24;;;;;;;0.70;0.70;;;-0.80;99.90;;;;;;4956275;28;20215;-85
2022/04/18 01:00:51;;;;;;;0.85;0.85;;;-0.90;99.90;;;;;;4956732;28;20778;-85
2022/04/18 01:03:19;;;;;;;1.25;1.15;;;-0.90;99.90;;;;;;4973406;28;20220;-85
2022/04/18 01:05:46;;;;;;;0.70;0.70;;;-1.00;99.90;;;;;;4955402;28;20220;-85
2022/04/18 01:08:12;;;;;;;0.70;0.70;;;-1.00;99.90;;;;;;4957101;28;20664;-85
2022/04/18 01:10:38;;;;;;;0.80;0.80;;;-1.00;99.90;;;;;;4959366;28;20341;-85
2022/04/18 01:13:04;;;;;;;0.63;0.63;;;-1.00;99.90;;;;;;4959716;28;20279;-85
2022/04/18 01:15:30;;;;;;;0.77;0.77;;;-1.10;99.90;;;;;;4959185;28;20367;-85
2022/04/18 01:17:56;;;;;;;0.70;0.70;;;-1.10;99.90;;;;;;4975508;28;20196;-85
2022/04/18 01:20:22;;;;;;;0.70;0.70;;;-1.10;99.90;;;;;;4975316;28;20207;-85
2022/04/18 01:22:51;;;;;;;0.70;0.70;;;-1.10;99.90;;;;;;4959521;28;20290;-85
2022/04/18 01:30:53;;;;;;;0.70;0.70;;;-1.20;99.90;;;;;;4976856;28;20584;-86
2022/04/18 01:33:19;;;;;;;0.80;0.77;;;-1.30;99.90;;;;;;4973937;28;20196;-84
2022/04/18 01:35:45;;;;;;;0.70;0.70;;;-1.30;99.90;;;;;;4972665;28;20200;-85
2022/04/18 01:38:10;;;;;;;0.70;0.70;;;-1.30;99.90;;;;;;4976635;28;20677;-85
2022/04/18 01:40:36;;;;;;;0.70;0.70;;;-1.30;99.90;;;;;;4976328;28;20220;-85
2022/04/18 01:43:02;;;;;;;0.80;0.80;;;-1.20;99.90;;;;;;4975175;28;20683;-85
2022/04/18 01:45:28;;;;;;;0.98;0.98;;;-1.20;99.90;;;;;;4974958;28;20207;-85
2022/04/18 01:47:53;;;;;;;1.20;1.20;;;-1.30;99.90;;;;;;4975255;28;20335;-85
2022/04/18 01:50:19;;;;;;;0.65;0.65;;;-1.30;99.90;;;;;;4976275;28;20192;-84
2022/04/18 01:52:45;;;;;;;0.77;0.77;;;-1.30;99.90;;;;;;4976519;28;20200;-85
2022/04/18 01:55:10;;;;;;;0.90;0.90;;;-1.40;99.90;;;;;;4975081;28;20207;-86
2022/04/18 01:57:36;;;;;;;0.70;0.70;;;-1.40;99.90;;;;;;4958867;28;20295;-86
2022/04/18 02:00:03;;;;;;;0.60;0.60;;;-1.40;99.90;;;;;;4976099;28;20215;-84
2022/04/18 02:02:28;;;;;;;0.82;0.82;;;-1.40;99.90;;;;;;4991862;28;20678;-85
2022/04/18 02:04:54;;;;;;;1.15;1.05;;;-1.50;99.90;;;;;;4978036;28;20215;-85
2022/04/18 02:07:21;;;;;;;0.60;0.60;;;-1.40;99.90;;;;;;4978008;28;20195;-84
2022/04/18 02:09:46;;;;;;;0.80;0.80;;;-1.30;99.90;;;;;;4978124;28;20202;-85
2022/04/18 02:12:12;;;;;;;0.80;0.80;;;-1.40;99.90;;;;;;4978171;28;20192;-85
2022/04/18 02:14:38;;;;;;;0.75;0.75;;;-1.40;99.90;;;;;;4972384;28;20718;-85
2022/04/18 02:17:04;;;;;;;0.90;0.90;;;-1.40;99.90;;;;;;4971382;28;20244;-85
2022/04/18 02:19:29;;;;;;;0.60;0.60;;;-1.40;99.90;;;;;;4970357;28;20200;-85
2022/04/18 02:21:55;;;;;;;0.80;0.80;;;-1.50;99.90;;;;;;4975520;28;20275;-85
2022/04/18 02:24:21;;;;;;;0.80;0.80;;;-1.40;99.90;;;;;;4974232;28;20239;-84
2022/04/18 02:26:46;;;;;;;3.13;1.70;;;-1.50;99.90;;;;;;4975746;28;20192;-85
2022/04/18 02:29:12;;;;;;;1.52;1.42;;;-1.50;99.90;;;;;;4975762;28;20196;-85
2022/04/18 02:32:47;;;;;;;0.80;0.80;;;-1.50;99.90;;;;;;4988485;28;20344;-86
2022/04/18 02:34:23;;;;;;;0.70;0.70;;;-1.50;99.90;;;;;;4975233;28;20216;-86
2022/04/18 02:36:49;;;;;;;1.48;1.25;;;-1.50;99.90;;;;;;4975642;28;20211;-86
2022/04/18 02:39:15;;;;;;;0.80;0.80;;;-1.50;99.90;;;;;;4973915;28;20204;-86
2022/04/18 02:41:41;;;;;;;0.70;0.70;;;-1.60;99.90;;;;;;4981155;28;20202;-86
2022/04/18 02:44:06;;;;;;;0.80;0.80;;;-1.60;99.90;;;;;;4993673;28;20219;-85
2022/04/18 02:46:32;;;;;;;0.70;0.70;;;-1.70;99.90;;;;;;4994741;28;20202;-86
2022/04/18 02:48:58;;;;;;;0.80;0.80;;;-1.70;99.90;;;;;;4994721;28;20191;-86
2022/04/18 02:51:27;;;;;;;0.70;0.70;;;-1.70;99.90;;;;;;4993112;28;20195;-87
2022/04/18 02:53:54;;;;;;;0.70;0.70;;;-1.70;99.90;;;;;;4994679;28;20697;-84
2022/04/18 02:56:20;;;;;;;0.70;0.70;;;-1.60;99.90;;;;;;4993006;28;20199;-85
2022/04/18 02:58:46;;;;;;;4.25;1.50;;;-1.60;99.90;;;;;;4977266;28;20199;-86
2022/04/18 03:01:12;;;;;;;0.70;0.70;;;-1.60;99.90;;;;;;4983416;28;20212;-85
2022/04/18 03:03:37;;;;;;;0.80;0.80;;;-1.60;99.90;;;;;;4973649;28;20202;-88
2022/04/18 03:06:05;;;;;;;0.80;0.80;;;-1.70;99.90;;;;;;4957835;28;20196;-87
2022/04/18 03:08:31;;;;;;;0.70;0.70;;;-1.70;99.90;;;;;;4974996;28;20184;-87
2022/04/18 03:11:03;;;;;;;0.80;0.80;;;-1.70;99.90;;;;;;4957587;28;20227;-87
2022/04/18 03:13:30;;;;;;;0.70;0.70;;;-1.80;99.90;;;;;;4957673;28;20201;-86
2022/04/18 03:15:56;;;;;;;1.30;1.20;;;-1.80;99.90;;;;;;4973504;28;20303;-87
2022/04/18 03:18:21;;;;;;;1.55;1.13;;;-1.80;99.90;;;;;;4957221;28;20288;-86
2022/04/18 03:20:47;;;;;;;0.70;0.70;;;-1.90;99.90;;;;;;4974728;28;20200;-86
2022/04/18 03:23:13;;;;;;;1.00;1.00;;;-1.90;99.90;;;;;;4970026;28;20291;-85
2022/04/18 03:25:38;;;;;;;0.63;0.63;;;-1.90;99.90;;;;;;4970091;28;20197;-86
2022/04/18 03:28:04;;;;;;;0.80;0.80;;;-1.90;99.90;;;;;;4988923;28;20199;-86
2022/04/18 03:30:30;;;;;;;0.70;0.70;;;-1.90;99.90;;;;;;4974513;28;20207;-86
2022/04/18 03:32:55;;;;;;;0.80;0.80;;;-1.90;99.90;;;;;;4973262;28;20219;-87
2022/04/18 03:35:21;;;;;;;0.80;0.80;;;-1.90;99.90;;;;;;4988170;28;20221;-86
2022/04/18 03:40:31;;;;;;;0.60;0.60;;;-2.00;99.90;;;;;;4974477;28;20211;-86
2022/04/18 03:42:57;;;;;;;0.80;0.80;;;-2.00;99.90;;;;;;4974441;28;20576;-86
2022/04/18 03:45:23;;;;;;;0.80;0.80;;;-2.00;99.90;;;;;;4974161;28;20216;-86
2022/04/18 03:47:48;;;;;;;0.77;0.77;;;-2.00;99.90;;;;;;4957053;28;20200;-87
2022/04/18 03:50:14;;;;;;;0.70;0.70;;;-2.00;99.90;;;;;;4957145;28;20196;-86
2022/04/18 03:52:40;;;;;;;0.70;0.70;;;-2.00;99.90;;;;;;4957174;28;20200;-87
2022/04/18 03:55:06;;;;;;;0.70;0.70;;;-1.90;99.90;;;;;;4956973;28;20682;-85
2022/04/18 03:57:32;;;;;;;0.90;0.90;;;-1.90;99.90;;;;;;4956710;28;20641;-85
2022/04/18 03:59:57;;;;;;;0.75;0.75;;;-1.90;99.90;;;;;;4972862;28;20239;-85
2022/04/18 04:02:23;;;;;;;0.80;0.80;;;-1.90;99.90;;;;;;4972788;28;20592;-85
2022/04/18 04:04:49;;;;;;;0.68;0.68;;;-1.90;99.90;;;;;;4974364;28;20204;-84
2022/04/18 04:07:14;;;;;;;0.82;0.82;;;-1.80;99.90;;;;;;4973851;28;20207;-85
2022/04/18 04:09:40;;;;;;;0.80;0.80;;;-1.80;99.90;;;;;;4972583;28;20296;-86
2022/04/18 04:12:06;;;;;;;0.70;0.70;;;-1.70;99.90;;;;;;4972587;28;20603;-84
2022/04/18 04:14:32;;;;;;;0.70;0.70;;;-1.70;99.90;;;;;;4972370;28;20280;-86
2022/04/18 04:16:58;;;;;;;0.73;0.73;;;-1.70;99.90;;;;;;4973925;28;20199;-86
2022/04/18 04:19:24;;;;;;;1.20;1.20;;;-1.60;99.90;;;;;;4953302;29;20234;-85
2022/04/18 04:21:50;;;;;;;0.70;0.70;;;-1.50;99.90;;;;;;4971867;28;20196;-85
2022/04/18 04:24:15;;;;;;;0.70;0.70;;;-1.50;99.90;;;;;;4972205;28;20735;-85
2022/04/18 04:26:41;;;;;;;9.18;2.67;;;-1.50;99.90;;;;;;4956278;28;20204;-85
2022/04/18 04:29:07;;;;;;;0.80;0.80;;;-1.40;99.90;;;;;;4972650;28;20543;-85
2022/04/18 04:31:32;;;;;;;0.80;0.80;;;-1.30;99.90;;;;;;4972345;28;20196;-85
2022/04/18 04:33:58;;;;;;;0.80;0.80;;;-1.20;99.90;;;;;;4973829;28;20684;-85
2022/04/18 04:36:24;;;;;;;0.80;0.80;;;-1.00;99.90;;;;;;4956761;28;20566;-85
2022/04/18 04:38:49;;;;;;;0.77;0.77;;;-0.90;99.90;;;;;;4956411;28;20286;-85
2022/04/18 04:41:16;;;;;;;0.63;0.63;;;-0.80;99.90;;;;;;4957276;28;20212;-85
2022/04/18 04:43:41;;;;;;;0.80;0.80;;;-0.70;99.90;;;;;;4975206;28;20200;-84
2022/04/18 04:46:07;;;;;;;0.70;0.70;;;-0.60;99.90;;;;;;4977622;28;20192;-86
2022/04/18 04:48:33;;;;;;;0.70;0.70;;;-0.50;99.90;;;;;;4960088;28;20204;-86
2022/04/18 04:50:58;;;;;;;0.70;0.70;;;-0.30;99.90;;;;;;4960044;28;20200;-86
2022/04/18 04:53:24;;;;;;;0.80;0.80;;;-0.30;99.90;;;;;;4977213;28;20196;-85
2022/04/18 04:55:50;;;;;;;0.70;0.70;;;-0.20;99.90;;;;;;4959819;28;20702;-86
2022/04/18 04:58:15;;;;;;;0.80;0.80;;;-0.10;99.90;;;;;;4960073;28;20263;-86
2022/04/18 05:00:42;;;;;;;0.70;0.70;;;-0.10;99.90;;;;;;4959721;28;20196;-85
2022/04/18 05:03:09;;;;;;;0.60;0.60;;;0.00;99.90;;;;;;4959878;28;20192;-86
2022/04/18 05:05:34;;;;;;;0.70;0.70;;;0.10;99.90;;;;;;4959375;28;20219;-86
2022/04/18 05:08:00;;;;;;;0.80;0.80;;;0.10;99.90;;;;;;4977116;28;20193;-86
2022/04/18 05:10:26;;;;;;;0.70;0.70;;;0.20;99.90;;;;;;4976921;28;20195;-85
2022/04/18 05:12:52;;;;;;;0.70;0.70;;;0.30;99.90;;;;;;4977259;28;20192;-85
2022/04/18 05:15:19;;;;;;;0.80;0.80;;;0.40;99.90;;;;;;4975618;28;20239;-85
2022/04/18 05:17:45;;;;;;;0.88;0.88;;;0.50;99.90;;;;;;4959767;28;20203;-85
2022/04/18 05:20:11;;;;;;;0.68;0.68;;;0.60;99.90;;;;;;4955944;28;20204;-86
2022/04/18 05:22:37;;;;;;;0.80;0.80;;;0.80;99.90;;;;;;4972265;28;20556;-85
2022/04/18 05:25:03;;;;;;;0.82;0.82;;;0.90;99.90;;;;;;4957904;29;20204;-86
2022/04/18 05:27:29;;;;;;;0.70;0.70;;;1.10;99.90;;;;;;4974809;28;20274;-87
2022/04/18 05:29:55;;;;;;;2.42;1.05;;;1.30;99.90;;;;;;4993134;28;20565;-86
2022/04/18 05:32:21;;;;;;;0.75;0.75;;;1.40;99.90;;;;;;4959276;28;20192;-85
2022/04/18 05:34:46;;;;;;;0.88;0.88;;;1.60;99.90;;;;;;4976613;28;20698;-86
2022/04/18 05:37:12;;;;;;;1.85;1.20;;;1.80;99.90;;;;;;4977059;28;20215;-85
2022/04/18 05:39:38;;;;;;;0.77;0.77;;;2.00;99.90;;;;;;4959287;28;20208;-85
2022/04/18 05:42:06;;;;;;;0.70;0.70;;;2.20;99.90;;;;;;4976960;28;20200;-86
2022/04/18 05:44:32;;;;;;;0.70;0.70;;;2.30;99.90;;;;;;4974920;28;20242;-86
2022/04/18 05:46:58;;;;;;;0.77;0.77;;;2.40;99.90;;;;;;4976661;28;20197;-86
2022/04/18 05:49:24;;;;;;;0.52;0.52;;;2.50;99.90;;;;;;4976144;28;20538;-86
2022/04/18 05:51:50;;;;;;;0.80;0.80;;;2.60;99.90;;;;;;4959123;28;20648;-86
2022/04/18 05:54:16;;;;;;;0.70;0.70;;;2.80;99.90;;;;;;4974355;28;20256;-86
2022/04/18 05:56:41;;;;;;;1.05;1.05;;;2.90;99.90;;;;;;4975483;28;20200;-86
2022/04/18 05:59:07;;;;;;;0.70;0.70;;;3.00;99.90;;;;;;4975015;28;20207;-86
2022/04/18 06:01:35;;;;;;;1.13;1.02;;;3.10;99.90;;;;;;4975724;28;20204;-86
2022/04/18 06:04:02;;;;;;;0.90;0.90;;;3.30;99.90;;;;;;4958756;28;20219;-86
2022/04/18 06:06:27;;;;;;;0.80;0.80;;;3.30;99.90;;;;;;4958355;28;20216;-86
2022/04/18 06:08:53;;;;;;;0.70;0.70;;;3.50;99.90;;;;;;4970287;28;20208;-86
2022/04/18 06:11:19;;;;;;;0.80;0.80;;;3.60;99.90;;;;;;4994090;28;20200;-85
2022/04/18 06:13:44;;;;;;;1.05;1.02;;;3.80;99.90;;;;;;4993799;28;20210;-85
2022/04/18 06:16:10;;;;;;;1.33;1.25;;;4.10;99.90;;;;;;4961157;28;20245;-85
2022/04/18 06:18:36;;;;;;;0.70;0.70;;;4.20;99.90;;;;;;4974375;28;20196;-86
2022/04/18 06:21:01;;;;;;;0.80;0.80;;;4.30;99.90;;;;;;4974543;28;20255;-86
2022/04/18 06:23:27;;;;;;;0.70;0.70;;;4.40;99.90;;;;;;4969030;28;20204;-85
2022/04/18 06:25:53;;;;;;;0.60;0.60;;;4.60;99.90;;;;;;4974236;28;20204;-85
2022/04/18 06:28:19;;;;;;;0.70;0.70;;;4.80;99.90;;;;;;4971499;28;20239;-85
2022/04/18 06:30:45;;;;;;;0.90;0.90;;;4.90;99.90;;;;;;4955509;28;20200;-85
2022/04/18 06:33:12;;;;;;;0.75;0.75;;;5.00;99.90;;;;;;4958221;28;20280;-86
2022/04/18 06:35:38;;;;;;;0.77;0.77;;;5.20;99.90;;;;;;4976725;28;20212;-85
2022/04/18 06:38:05;;;;;;;2.95;1.50;;;5.50;99.90;;;;;;4994763;28;20191;-84
2022/04/18 06:40:31;;;;;;;1.33;1.20;;;5.50;99.90;;;;;;4977250;28;20588;-85
2022/04/18 06:42:57;;;;;;;0.68;0.68;;;5.70;99.90;;;;;;4977430;28;20667;-85
2022/04/18 06:45:24;;;;;;;0.75;0.75;;;5.80;99.90;;;;;;4993309;28;20675;-86
2022/04/18 06:47:50;;;;;;;0.80;0.80;;;6.00;99.90;;;;;;4994817;28;20587;-86
2022/04/18 06:50:15;;;;;;;0.80;0.80;;;6.20;99.90;;;;;;4977369;28;20283;-86
2022/04/18 06:52:46;;;;;;;0.70;0.70;;;6.30;99.90;;;;;;4977065;28;20594;-86
2022/04/18 06:55:11;;;;;;;0.68;0.68;;;6.30;99.90;;;;;;4977356;28;20204;-85
2022/04/18 06:57:38;;;;;;;0.85;0.85;;;6.40;99.90;;;;;;4978555;28;20212;-84
2022/04/18 07:00:05;;;;;;;0.80;0.80;;;6.70;99.90;;;;;;4975040;28;20206;-85
2022/04/18 07:02:31;;;;;;;0.70;0.70;;;6.90;99.90;;;;;;4973593;28;20200;-85
2022/04/18 07:04:58;;;;;;;2.05;1.35;;;7.00;99.90;;;;;;4974181;28;20628;-91
2022/04/18 07:07:24;;;;;;;0.70;0.70;;;7.10;99.90;;;;;;4957163;28;20627;-88
2022/04/18 07:09:49;;;;;;;0.80;0.80;;;7.10;99.90;;;;;;4973987;28;20278;-89
2022/04/18 07:12:22;;;;;;;1.75;1.65;;;7.30;99.90;;;;;;4973709;28;20663;-89
2022/04/18 07:14:49;;;;;;;0.90;0.90;;;7.60;99.90;;;;;;4971530;28;20228;-88
2022/04/18 07:17:15;;;;;;;0.75;0.75;;;7.60;99.90;;;;;;4973762;28;20204;-88
2022/04/18 07:19:41;;;;;;;0.90;0.80;;;7.80;99.90;;;;;;4974808;28;20199;-90
2022/04/18 07:22:07;;;;;;;0.63;0.63;;;8.10;99.90;;;;;;4973513;28;20200;-89
2022/04/18 07:24:33;;;;;;;0.70;0.70;;;8.30;99.90;;;;;;4957546;28;20212;-89
2022/04/18 07:27:01;;;;;;;0.70;0.70;;;8.20;99.90;;;;;;4957732;28;20199;-87
2022/04/18 07:29:27;;;;;;;0.70;0.70;;;8.30;99.90;;;;;;4975593;28;20204;-87
2022/04/18 07:31:53;;;;;;;0.60;0.60;;;8.50;99.90;;;;;;4957729;28;20211;-86
2022/04/18 07:34:20;;;;;;;0.70;0.70;;;8.70;99.90;;;;;;4957377;28;20200;-86
2022/04/18 07:36:45;;;;;;;0.60;0.60;;;8.70;99.90;;;;;;4957332;28;20204;-87
2022/04/18 07:39:11;;;;;;;0.90;0.90;;;8.80;99.90;;;;;;4957534;28;20659;-86
2022/04/18 07:41:37;;;;;;;0.68;0.68;;;8.80;99.90;;;;;;4957255;28;20258;-86
2022/04/18 07:44:05;;;;;;;0.70;0.70;;;8.80;99.90;;;;;;4974672;28;20219;-86
2022/04/18 07:46:31;;;;;;;0.70;0.70;;;9.00;99.90;;;;;;4956967;28;20255;-86
2022/04/18 07:48:57;;;;;;;0.60;0.60;;;9.00;99.90;;;;;;4957591;28;20192;-87
2022/04/18 07:51:34;;;;;;;0.70;0.65;;;9.10;99.90;;;;;;4972953;28;20676;-88
2022/04/18 07:54:04;;;;;;;0.60;0.60;;;9.20;99.90;;;;;;4960025;28;20717;-87
2022/04/18 07:56:30;;;;;;;0.70;0.70;;;9.10;99.90;;;;;;4994124;28;20196;-86
2022/04/18 07:58:56;;;;;;;0.60;0.60;;;9.30;99.90;;;;;;4977084;28;20580;-87
2022/04/18 08:01:22;;;;;;;2.45;2.25;;;9.70;99.90;;;;;;4993650;28;20196;-86
2022/04/18 08:03:48;;;;;;;0.60;0.60;;;9.90;99.90;;;;;;4993651;28;20210;-87
2022/04/18 08:06:16;;;;;;;0.88;0.80;;;9.90;99.90;;;;;;4993925;28;20188;-86
2022/04/18 08:08:42;;;;;;;0.50;0.50;;;10.20;99.90;;;;;;4993650;28;20560;-86
2022/04/18 08:11:17;;;;;;;0.60;0.60;;;10.50;99.90;;;;;;4976280;28;20667;-76
2022/04/18 08:13:43;;;;;;;0.50;0.50;;;10.80;99.90;;;;;;4992327;28;20199;-84
2022/04/18 08:16:11;;;;;;;0.60;0.60;;;11.00;99.90;;;;;;4966883;28;20675;-90
2022/04/18 08:18:39;;;;;;;0.60;0.60;;;11.20;99.90;;;;;;4993155;28;20203;-90
2022/04/18 08:21:08;;;;;;;1.05;0.90;;;11.20;99.90;;;;;;4967462;28;20197;-89
2022/04/18 08:23:35;;;;;;;0.50;0.50;;;11.60;99.90;;;;;;4953921;29;20209;-88
2022/04/18 08:26:02;;;;;;;0.50;0.50;;;12.00;99.90;;;;;;4958985;28;20201;-89
2022/04/18 08:28:28;;;;;;;0.50;0.50;;;12.20;99.90;;;;;;4942023;29;20609;-89
2022/04/18 08:30:54;;;;;;;0.50;0.50;;;12.40;99.90;;;;;;4957232;28;20192;-89
2022/04/18 08:33:21;;;;;;;0.70;0.70;;;12.70;99.90;;;;;;4957408;29;20201;-87
2022/04/18 08:35:46;;;;;;;0.50;0.50;;;12.80;99.90;;;;;;4958234;29;20560;-86
2022/04/18 08:38:13;;;;;;;0.52;0.52;;;12.90;99.90;;;;;;4957117;29;20318;-87
2022/04/18 08:40:42;;;;;;;0.50;0.50;;;12.90;99.90;;;;;;4958356;28;20631;-88
2022/04/18 08:43:08;;;;;;;0.60;0.60;;;12.70;99.90;;;;;;4957370;29;20652;-89
2022/04/18 08:45:35;;;;;;;2.05;0.85;;;13.10;99.90;;;;;;4957891;28;20216;-88
2022/04/18 08:53:31;;;;;;;0.50;0.50;;;13.30;99.90;;;;;;4958259;29;20285;-87
2022/04/18 08:55:58;;;;;;;0.77;0.77;;;13.60;99.90;;;;;;4941130;29;20221;-89
2022/04/18 08:58:26;;;;;;;0.82;0.82;;;13.80;99.90;;;;;;4941091;29;20236;-90
2022/04/18 09:00:53;;;;;;;0.75;0.70;;;13.80;99.90;;;;;;4956960;28;20287;-89
2022/04/18 09:03:19;;;;;;;0.50;0.50;;;14.10;99.90;;;;;;4958352;29;20272;-89
2022/04/18 09:05:46;;;;;;;2.90;0.70;;;14.20;99.90;;;;;;4940750;29;20303;-90
2022/04/18 09:08:13;;;;;;;0.50;0.50;;;14.50;99.90;;;;;;4940928;29;20582;-88
2022/04/18 09:10:41;;;;;;;0.40;0.40;;;14.70;99.90;;;;;;4956854;28;20675;-88
2022/04/18 09:13:12;;;;;;;1.10;0.68;;;14.60;99.90;;;;;;4972834;28;20196;-85
2022/04/18 09:15:43;;;;;;;0.75;0.75;;;14.00;99.90;;;;;;4975634;28;20243;-83
2022/04/18 09:18:29;;;;;;;0.40;0.40;;;14.30;99.90;;;;;;4969777;28;20616;-83
2022/04/18 09:20:58;;;;;;;0.47;0.47;;;14.10;99.60;;;;;;4959455;28;20208;-86
2022/04/18 09:23:29;;;;;;;0.50;0.50;;;14.70;99.90;;;;;;4956002;29;20200;-88
2022/04/18 09:26:04;;;;;;;0.35;0.35;;;15.10;99.90;;;;;;4956627;29;20679;-86
2022/04/18 09:28:31;;;;;;;0.40;0.40;;;15.30;97.80;;;;;;4956184;28;20204;-85
2022/04/18 09:31:09;;;;;;;0.50;0.50;;;15.30;98.10;;;;;;4956798;29;20362;-79
2022/04/18 09:33:38;;;;;;;0.40;0.40;;;15.70;99.90;;;;;;4957021;29;20227;-80
2022/04/18 09:36:08;;;;;;;0.40;0.40;;;16.40;98.30;;;;;;4958037;29;20331;-80
2022/04/18 09:38:48;;;;;;;0.40;0.40;;;16.40;95.30;;;;;;4958048;29;20197;-78
2022/04/18 09:41:15;;;;;;;0.40;0.40;;;16.70;97.90;;;;;;4956994;29;20365;-80
2022/04/18 09:43:46;;;;;;;0.40;0.40;;;16.70;96.90;;;;;;4956459;29;20275;-79
2022/04/18 09:46:15;;;;;;;0.40;0.40;;;17.50;94.70;;;;;;4972443;28;20282;-79
2022/04/18 09:48:45;;;;;;;0.65;0.65;;;18.30;99.00;;;;;;4959240;28;20200;-79
2022/04/18 09:51:25;;;;;;;22.38;1.15;;;18.90;93.80;;;;;;4959144;28;20586;-82
2022/04/18 09:53:53;;;;;;;0.30;0.30;;;18.70;89.30;;;;;;4976490;28;20196;-83
2022/04/18 09:56:22;;;;;;;2.05;0.55;;;19.00;90.10;;;;;;4977099;28;20339;-80
2022/04/18 09:58:48;;;;;;;0.30;0.30;;;19.20;85.90;;;;;;4977518;28;20208;-79
2022/04/18 10:01:14;;;;;;;0.57;0.57;;;18.30;86.00;;;;;;4975832;28;20199;-79
2022/04/18 10:03:41;;;;;;;0.93;0.52;;;17.30;87.30;;;;;;4976933;28;20291;-78
2022/04/18 10:06:07;;;;;;;0.82;0.73;;;17.80;85.10;;;;;;4960024;28;20665;-79
2022/04/18 10:08:36;;;;;;;0.40;0.40;;;17.60;89.10;;;;;;4960334;28;20204;-77
2022/04/18 10:11:04;;;;;;;0.57;0.57;;;17.70;85.80;;;;;;4978151;28;20220;-77
2022/04/18 10:13:31;;;;;;;0.30;0.30;;;18.40;92.70;;;;;;4977248;28;20895;-79
2022/04/18 10:15:59;;;;;;;1.02;0.30;;;19.20;87.80;;;;;;4959493;28;20232;-79
2022/04/18 10:18:26;;;;;;;0.50;0.50;;;18.90;83.20;;;;;;4976998;28;20192;-79
2022/04/18 10:21:07;;;;;;;0.38;0.30;;;18.80;84.80;;;;;;4975440;28;20218;-81
2022/04/18 10:24:03;;;;;;;0.20;0.20;;;19.40;83.60;;;;;;4975300;28;20674;-81
2022/04/18 10:26:51;;;;;;;0.60;0.50;;;19.30;82.00;;;;;;4971968;28;20199;-79
2022/04/18 10:29:27;;;;;;;0.30;0.30;;;19.00;77.60;;;;;;4969210;28;20192;-78
2022/04/18 10:31:54;;;;;;;0.40;0.40;;;19.40;81.80;;;;;;4976356;28;20220;-79
2022/04/18 10:34:23;;;;;;;1.17;0.80;;;20.30;75.80;;;;;;4976283;28;20606;-78
2022/04/18 10:36:52;;;;;;;0.20;0.20;;;20.10;73.80;;;;;;4959193;28;20291;-79
2022/04/18 10:39:19;;;;;;;0.30;0.30;;;19.70;77.30;;;;;;4976772;28;20208;-80
2022/04/18 10:41:47;;;;;;;0.25;0.25;;;20.10;78.10;;;;;;4958762;28;20204;-80
2022/04/18 10:44:14;;;;;;;0.20;0.20;;;20.40;75.30;;;;;;4975145;28;20207;-80
2022/04/18 10:46:40;;;;;;;3.17;0.65;;;20.10;75.30;;;;;;4976291;28;20199;-78
2022/04/18 10:49:20;;;;;;;1.55;0.77;;;20.30;78.30;;;;;;4976520;28;20203;-79
2022/04/18 10:51:47;;;;;;;0.30;0.30;;;20.90;73.30;;;;;;4975831;28;20246;-79
2022/04/18 10:54:13;;;;;;;0.30;0.30;;;21.00;75.20;;;;;;4974859;28;20295;-79
2022/04/18 10:57:01;;;;;;;0.57;0.40;;;21.60;75.40;;;;;;4958484;28;20270;-80
2022/04/18 10:59:38;;;;;;;0.20;0.20;;;22.60;65.70;;;;;;4974123;28;20181;-76
2022/04/18 11:02:05;;;;;;;0.35;0.35;;;22.30;65.10;;;;;;4974040;28;20570;-79
2022/04/18 11:04:44;;;;;;;0.40;0.40;;;21.40;63.60;;;;;;4969798;28;20255;-78
2022/04/18 11:07:11;;;;;;;0.20;0.20;;;20.70;67.10;;;;;;4958497;28;20251;-77
2022/04/18 11:09:46;;;;;;;0.30;0.30;;;20.50;68.80;;;;;;4958359;28;20250;-78
2022/04/18 11:12:20;;;;;;;0.35;0.35;;;20.40;69.20;;;;;;4951899;28;20204;-79
2022/04/18 11:15:02;;;;;;;0.63;0.63;;;20.30;66.70;;;;;;4975821;28;20228;-78
2022/04/18 11:17:29;;;;;;;0.20;0.20;;;21.00;67.60;;;;;;4975585;28;20192;-79
2022/04/18 11:19:55;;;;;;;0.30;0.30;;;21.20;65.70;;;;;;4976135;28;20255;-80
2022/04/18 11:22:25;;;;;;;0.32;0.32;;;21.00;66.20;;;;;;4974011;28;20208;-79
2022/04/18 11:24:54;;;;;;;0.20;0.20;;;20.80;61.90;;;;;;4993358;28;20306;-79
2022/04/18 11:27:30;;;;;;;0.20;0.20;;;20.60;65.90;;;;;;4977834;28;20214;-79
2022/04/18 11:29:56;;;;;;;0.20;0.20;;;21.50;68.80;;;;;;4995264;28;20191;-79
2022/04/18 11:32:24;;;;;;;0.50;0.50;;;22.50;63.60;;;;;;4995077;28;20199;-79
2022/04/18 11:34:52;;;;;;;0.30;0.30;;;23.20;62.70;;;;;;4994970;28;20713;-78
2022/04/18 11:37:28;;;;;;;0.20;0.20;;;22.60;58.50;;;;;;4991786;28;20561;-78
2022/04/18 11:39:56;;;;;;;0.55;0.43;;;21.60;60.20;;;;;;4974122;28;20576;-79
2022/04/18 11:42:24;;;;;;;0.20;0.20;;;21.80;58.80;;;;;;4975146;28;20199;-79
2022/04/18 11:44:53;;;;;;;0.20;0.20;;;22.00;65.00;;;;;;4975354;28;20215;-78
2022/04/18 11:47:26;;;;;;;0.20;0.20;;;22.00;58.80;;;;;;4958160;28;20594;-78
2022/04/18 11:49:58;;;;;;;0.20;0.20;;;21.30;60.60;;;;;;4974436;28;20655;-78
2022/04/18 11:52:26;;;;;;;0.30;0.30;;;21.40;64.00;;;;;;4975779;28;20226;-78
2022/04/18 11:55:01;;;;;;;0.57;0.38;;;21.80;62.70;;;;;;4958431;28;20200;-76
2022/04/18 11:57:30;;;;;;;0.17;0.17;;;22.00;61.10;;;;;;4975175;28;20274;-76
2022/04/18 11:59:56;;;;;;;0.20;0.20;;;22.10;57.60;;;;;;4975206;28;20196;-78
2022/04/18 12:08:02;;;;;;;0.10;0.10;;;21.50;68.40;;;;;;4976005;28;20198;-80
2022/04/18 12:10:31;;;;;;;0.98;0.88;;;22.30;64.80;;;;;;4975509;28;20227;-80
2022/04/18 12:12:58;;;;;;;0.30;0.30;;;22.10;60.00;;;;;;4974859;28;20185;-79
2022/04/18 12:15:26;;;;;;;2.15;0.70;;;22.30;61.80;;;;;;4957105;28;20334;-81
2022/04/18 12:17:53;;;;;;;0.57;0.55;;;22.00;61.10;;;;;;4975347;28;20196;-80
2022/04/18 12:20:29;;;;;;;1.10;0.80;;;22.40;58.50;;;;;;4977064;28;20212;-79
2022/04/18 12:23:00;;;;;;;0.20;0.20;;;22.50;61.50;;;;;;4966611;28;20287;-79
2022/04/18 12:25:31;;;;;;;0.30;0.30;;;22.90;66.30;;;;;;4955633;29;20247;-79
2022/04/18 12:28:03;;;;;;;0.65;0.55;;;23.30;64.00;;;;;;4955802;29;20193;-81
2022/04/18 12:30:29;;;;;;;0.30;0.30;;;23.50;59.00;;;;;;4954415;28;20201;-79
2022/04/18 12:32:55;;;;;;;0.50;0.50;;;23.60;61.00;;;;;;4954575;29;20660;-80
2022/04/18 12:35:41;;;;;;;0.25;0.25;;;23.30;59.20;;;;;;4954266;29;20296;-79
2022/04/18 12:38:12;;;;;;;0.10;0.10;;;22.60;58.60;;;;;;4948190;29;20635;-80
2022/04/18 12:40:41;;;;;;;0.28;0.28;;;22.30;63.80;;;;;;4938431;29;20200;-79
2022/04/18 12:43:13;;;;;;;0.20;0.20;;;22.60;65.10;;;;;;4947908;29;20687;-80
2022/04/18 12:45:47;;;;;;;0.30;0.30;;;23.10;62.40;;;;;;4954344;29;20223;-80
2022/04/18 12:48:14;;;;;;;0.30;0.30;;;23.10;60.80;;;;;;4949019;29;20189;-80
2022/04/18 12:50:40;;;;;;;0.22;0.22;;;23.20;61.80;;;;;;4954779;29;20566;-79
2022/04/18 12:53:07;;;;;;;1.98;1.00;;;23.30;57.50;;;;;;4955510;29;20200;-78
2022/04/18 12:55:33;;;;;;;0.20;0.20;;;22.50;57.50;;;;;;4954207;29;20212;-79
2022/04/18 12:58:00;;;;;;;12.88;0.45;;;21.70;57.00;;;;;;4956433;29;20197;-80
2022/04/18 13:00:35;;;;;;;0.38;0.38;;;21.70;56.30;;;;;;4963378;28;20200;-80
2022/04/18 13:03:04;;;;;;;3.20;0.57;;;21.80;55.30;;;;;;4957724;28;20618;-81
2022/04/18 13:05:32;;;;;;;0.70;0.30;;;21.90;60.90;;;;;;4940692;28;20582;-78
2022/04/18 13:08:03;;;;;;;0.47;0.30;;;22.50;61.70;;;;;;4957015;29;20658;-80
2022/04/18 13:10:31;;;;;;;0.30;0.20;;;22.30;59.40;;;;;;4941793;29;20197;-77
2022/04/18 13:13:07;;;;;;;0.22;0.22;;;21.90;58.60;;;;;;4958672;29;20197;-79